sensor_id;sensor_type;location;lat;lon;timestamp;P1;durP1;ratioP1;P2;durP2;ratioP2
50585;SDS011;36542;51.700;8.846;2023-08-24T00:00:30;25.63;;;22.83;;
50585;SDS011;36542;51.700;8.846;2023-08-24T00:02:57;23.80;;;21.30;;
50585;SDS011;36542;51.700;8.846;2023-08-24T00:05:23;22.80;;;20.70;;
50585;SDS011;36542;51.700;8.846;2023-08-24T00:07:49;25.07;;;22.60;;
50585;SDS011;36542;51.700;8.846;2023-08-24T00:10:14;24.43;;;22.17;;
50585;SDS011;36542;51.700;8.846;2023-08-24T00:12:40;24.73;;;22.13;;
50585;SDS011;36542;51.700;8.846;2023-08-24T00:15:09;23.80;;;21.53;;
50585;SDS011;36542;51.700;8.846;2023-08-24T00:17:35;25.03;;;22.67;;
50585;SDS011;36542;51.700;8.846;2023-08-24T00:20:02;26.83;;;24.33;;
50585;SDS011;36542;51.700;8.846;2023-08-24T00:22:29;26.63;;;23.83;;
50585;SDS011;36542;51.700;8.846;2023-08-24T00:24:55;24.77;;;22.47;;
50585;SDS011;36542;51.700;8.846;2023-08-24T00:27:21;24.73;;;22.43;;
50585;SDS011;36542;51.700;8.846;2023-08-24T00:29:46;25.13;;;22.87;;
50585;SDS011;36542;51.700;8.846;2023-08-24T00:32:12;26.57;;;23.93;;
50585;SDS011;36542;51.700;8.846;2023-08-24T00:34:37;25.93;;;23.47;;
50585;SDS011;36542;51.700;8.846;2023-08-24T00:37:03;25.70;;;23.33;;
50585;SDS011;36542;51.700;8.846;2023-08-24T00:39:28;27.80;;;25.00;;
50585;SDS011;36542;51.700;8.846;2023-08-24T00:41:54;28.17;;;25.57;;
50585;SDS011;36542;51.700;8.846;2023-08-24T00:44:20;27.37;;;24.57;;
50585;SDS011;36542;51.700;8.846;2023-08-24T00:46:45;29.30;;;26.30;;
50585;SDS011;36542;51.700;8.846;2023-08-24T00:49:11;27.17;;;24.70;;
50585;SDS011;36542;51.700;8.846;2023-08-24T00:51:37;28.60;;;25.80;;
50585;SDS011;36542;51.700;8.846;2023-08-24T00:54:03;27.87;;;25.27;;
50585;SDS011;36542;51.700;8.846;2023-08-24T00:56:29;27.10;;;24.33;;
50585;SDS011;36542;51.700;8.846;2023-08-24T00:58:55;27.77;;;25.23;;
50585;SDS011;36542;51.700;8.846;2023-08-24T01:01:22;25.77;;;23.47;;
50585;SDS011;36542;51.700;8.846;2023-08-24T01:03:49;27.93;;;25.13;;
50585;SDS011;36542;51.700;8.846;2023-08-24T01:06:15;28.30;;;25.70;;
50585;SDS011;36542;51.700;8.846;2023-08-24T01:08:40;29.37;;;26.77;;
50585;SDS011;36542;51.700;8.846;2023-08-24T01:11:12;29.73;;;26.70;;
50585;SDS011;36542;51.700;8.846;2023-08-24T01:16:39;28.17;;;25.37;;
50585;SDS011;36542;51.700;8.846;2023-08-24T01:19:10;26.47;;;24.07;;
50585;SDS011;36542;51.700;8.846;2023-08-24T01:21:53;27.20;;;24.43;;
50585;SDS011;36542;51.700;8.846;2023-08-24T01:24:31;28.87;;;26.20;;
50585;SDS011;36542;51.700;8.846;2023-08-24T01:27:04;27.60;;;25.07;;
50585;SDS011;36542;51.700;8.846;2023-08-24T01:29:30;28.77;;;25.87;;
50585;SDS011;36542;51.700;8.846;2023-08-24T01:31:56;31.17;;;28.03;;
50585;SDS011;36542;51.700;8.846;2023-08-24T01:34:22;29.23;;;26.30;;
50585;SDS011;36542;51.700;8.846;2023-08-24T01:36:48;30.77;;;27.67;;
50585;SDS011;36542;51.700;8.846;2023-08-24T01:41:42;28.47;;;25.47;;
50585;SDS011;36542;51.700;8.846;2023-08-24T01:44:13;27.27;;;24.60;;
50585;SDS011;36542;51.700;8.846;2023-08-24T01:46:42;28.90;;;25.77;;
50585;SDS011;36542;51.700;8.846;2023-08-24T01:49:08;27.13;;;24.40;;
50585;SDS011;36542;51.700;8.846;2023-08-24T01:51:37;27.10;;;24.33;;
50585;SDS011;36542;51.700;8.846;2023-08-24T01:54:03;27.93;;;24.87;;
50585;SDS011;36542;51.700;8.846;2023-08-24T01:56:29;26.80;;;24.30;;
50585;SDS011;36542;51.700;8.846;2023-08-24T01:58:54;25.80;;;23.40;;
50585;SDS011;36542;51.700;8.846;2023-08-24T02:01:21;26.63;;;23.97;;
50585;SDS011;36542;51.700;8.846;2023-08-24T02:03:46;28.60;;;25.87;;
50585;SDS011;36542;51.700;8.846;2023-08-24T02:06:12;30.10;;;26.90;;
50585;SDS011;36542;51.700;8.846;2023-08-24T02:08:37;29.77;;;26.97;;
50585;SDS011;36542;51.700;8.846;2023-08-24T02:11:03;28.90;;;26.23;;
50585;SDS011;36542;51.700;8.846;2023-08-24T02:13:28;32.17;;;28.97;;
50585;SDS011;36542;51.700;8.846;2023-08-24T02:16:04;31.50;;;28.60;;
50585;SDS011;36542;51.700;8.846;2023-08-24T02:18:30;30.67;;;27.70;;
50585;SDS011;36542;51.700;8.846;2023-08-24T02:20:56;31.07;;;27.90;;
50585;SDS011;36542;51.700;8.846;2023-08-24T02:23:22;29.53;;;26.53;;
50585;SDS011;36542;51.700;8.846;2023-08-24T02:25:48;28.67;;;26.07;;
50585;SDS011;36542;51.700;8.846;2023-08-24T02:28:13;30.50;;;27.67;;
50585;SDS011;36542;51.700;8.846;2023-08-24T02:30:39;30.80;;;27.83;;
50585;SDS011;36542;51.700;8.846;2023-08-24T02:33:04;30.77;;;27.83;;
50585;SDS011;36542;51.700;8.846;2023-08-24T02:35:30;31.63;;;28.43;;
50585;SDS011;36542;51.700;8.846;2023-08-24T02:37:56;31.40;;;27.77;;
50585;SDS011;36542;51.700;8.846;2023-08-24T02:40:22;31.40;;;28.10;;
50585;SDS011;36542;51.700;8.846;2023-08-24T02:42:48;31.00;;;28.10;;
50585;SDS011;36542;51.700;8.846;2023-08-24T02:45:13;32.50;;;29.20;;
50585;SDS011;36542;51.700;8.846;2023-08-24T02:47:39;30.83;;;27.83;;
50585;SDS011;36542;51.700;8.846;2023-08-24T02:50:05;30.03;;;27.13;;
50585;SDS011;36542;51.700;8.846;2023-08-24T02:52:33;28.47;;;25.73;;
50585;SDS011;36542;51.700;8.846;2023-08-24T02:54:59;28.27;;;25.47;;
50585;SDS011;36542;51.700;8.846;2023-08-24T02:57:25;27.80;;;25.30;;
50585;SDS011;36542;51.700;8.846;2023-08-24T02:59:50;27.73;;;24.87;;
50585;SDS011;36542;51.700;8.846;2023-08-24T03:02:16;26.53;;;24.07;;
50585;SDS011;36542;51.700;8.846;2023-08-24T03:04:41;26.90;;;24.07;;
50585;SDS011;36542;51.700;8.846;2023-08-24T03:07:07;27.33;;;24.63;;
50585;SDS011;36542;51.700;8.846;2023-08-24T03:09:35;26.57;;;24.13;;
50585;SDS011;36542;51.700;8.846;2023-08-24T03:12:01;27.93;;;25.23;;
50585;SDS011;36542;51.700;8.846;2023-08-24T03:14:26;36.43;;;28.17;;
50585;SDS011;36542;51.700;8.846;2023-08-24T03:16:52;31.20;;;27.67;;
50585;SDS011;36542;51.700;8.846;2023-08-24T03:19:17;30.70;;;27.73;;
50585;SDS011;36542;51.700;8.846;2023-08-24T03:21:43;28.20;;;24.73;;
50585;SDS011;36542;51.700;8.846;2023-08-24T03:24:09;27.43;;;24.73;;
50585;SDS011;36542;51.700;8.846;2023-08-24T03:26:34;26.50;;;23.90;;
50585;SDS011;36542;51.700;8.846;2023-08-24T03:29:00;25.10;;;22.80;;
50585;SDS011;36542;51.700;8.846;2023-08-24T03:31:25;24.77;;;22.47;;
50585;SDS011;36542;51.700;8.846;2023-08-24T03:33:51;23.90;;;21.53;;
50585;SDS011;36542;51.700;8.846;2023-08-24T03:36:17;23.33;;;20.90;;
50585;SDS011;36542;51.700;8.846;2023-08-24T03:38:43;22.93;;;20.70;;
50585;SDS011;36542;51.700;8.846;2023-08-24T03:41:10;23.03;;;20.70;;
50585;SDS011;36542;51.700;8.846;2023-08-24T03:43:35;24.80;;;22.40;;
50585;SDS011;36542;51.700;8.846;2023-08-24T03:46:02;23.07;;;20.77;;
50585;SDS011;36542;51.700;8.846;2023-08-24T03:48:31;24.50;;;22.20;;
50585;SDS011;36542;51.700;8.846;2023-08-24T03:50:57;24.23;;;21.70;;
50585;SDS011;36542;51.700;8.846;2023-08-24T03:53:24;22.13;;;19.80;;
50585;SDS011;36542;51.700;8.846;2023-08-24T03:55:53;22.63;;;20.63;;
50585;SDS011;36542;51.700;8.846;2023-08-24T03:58:19;20.60;;;18.70;;
50585;SDS011;36542;51.700;8.846;2023-08-24T04:00:45;21.33;;;19.47;;
50585;SDS011;36542;51.700;8.846;2023-08-24T04:03:11;20.77;;;18.80;;
50585;SDS011;36542;51.700;8.846;2023-08-24T04:05:36;22.53;;;20.23;;
50585;SDS011;36542;51.700;8.846;2023-08-24T04:08:02;20.57;;;18.67;;
50585;SDS011;36542;51.700;8.846;2023-08-24T04:10:29;20.97;;;18.97;;
50585;SDS011;36542;51.700;8.846;2023-08-24T04:12:55;20.57;;;18.43;;
50585;SDS011;36542;51.700;8.846;2023-08-24T04:15:20;21.73;;;19.47;;
50585;SDS011;36542;51.700;8.846;2023-08-24T04:17:47;22.90;;;20.70;;
50585;SDS011;36542;51.700;8.846;2023-08-24T04:20:13;23.37;;;21.07;;
50585;SDS011;36542;51.700;8.846;2023-08-24T04:22:39;20.87;;;18.60;;
50585;SDS011;36542;51.700;8.846;2023-08-24T04:25:04;18.37;;;16.67;;
50585;SDS011;36542;51.700;8.846;2023-08-24T04:27:31;19.50;;;17.70;;
50585;SDS011;36542;51.700;8.846;2023-08-24T04:29:57;19.63;;;17.67;;
50585;SDS011;36542;51.700;8.846;2023-08-24T04:32:23;20.77;;;18.77;;
50585;SDS011;36542;51.700;8.846;2023-08-24T04:34:49;20.17;;;18.27;;
50585;SDS011;36542;51.700;8.846;2023-08-24T04:37:15;18.60;;;16.80;;
50585;SDS011;36542;51.700;8.846;2023-08-24T04:39:40;18.47;;;16.67;;
50585;SDS011;36542;51.700;8.846;2023-08-24T04:42:06;18.43;;;16.53;;
50585;SDS011;36542;51.700;8.846;2023-08-24T04:44:32;19.80;;;17.90;;
50585;SDS011;36542;51.700;8.846;2023-08-24T04:46:58;18.83;;;17.20;;
50585;SDS011;36542;51.700;8.846;2023-08-24T04:49:23;19.40;;;17.40;;
50585;SDS011;36542;51.700;8.846;2023-08-24T04:51:49;21.17;;;19.20;;
50585;SDS011;36542;51.700;8.846;2023-08-24T04:54:14;21.87;;;19.57;;
50585;SDS011;36542;51.700;8.846;2023-08-24T04:56:40;23.60;;;17.60;;
50585;SDS011;36542;51.700;8.846;2023-08-24T04:59:06;16.40;;;14.73;;
50585;SDS011;36542;51.700;8.846;2023-08-24T05:01:32;15.73;;;14.23;;
50585;SDS011;36542;51.700;8.846;2023-08-24T05:03:59;15.10;;;13.30;;
50585;SDS011;36542;51.700;8.846;2023-08-24T05:06:25;15.97;;;14.40;;
50585;SDS011;36542;51.700;8.846;2023-08-24T05:08:52;16.47;;;15.07;;
50585;SDS011;36542;51.700;8.846;2023-08-24T05:11:19;17.27;;;15.63;;
50585;SDS011;36542;51.700;8.846;2023-08-24T05:13:47;17.20;;;15.43;;
50585;SDS011;36542;51.700;8.846;2023-08-24T05:16:12;16.13;;;14.43;;
50585;SDS011;36542;51.700;8.846;2023-08-24T05:18:38;16.97;;;15.27;;
50585;SDS011;36542;51.700;8.846;2023-08-24T05:21:04;17.23;;;15.60;;
50585;SDS011;36542;51.700;8.846;2023-08-24T05:23:31;16.53;;;14.93;;
50585;SDS011;36542;51.700;8.846;2023-08-24T05:25:57;15.47;;;13.67;;
50585;SDS011;36542;51.700;8.846;2023-08-24T05:28:24;14.37;;;12.90;;
50585;SDS011;36542;51.700;8.846;2023-08-24T05:30:51;18.43;;;12.57;;
50585;SDS011;36542;51.700;8.846;2023-08-24T05:33:17;24.03;;;13.27;;
50585;SDS011;36542;51.700;8.846;2023-08-24T05:35:43;22.07;;;13.50;;
50585;SDS011;36542;51.700;8.846;2023-08-24T05:38:09;24.83;;;15.17;;
50585;SDS011;36542;51.700;8.846;2023-08-24T05:40:37;30.13;;;16.73;;
50585;SDS011;36542;51.700;8.846;2023-08-24T05:43:04;28.63;;;14.83;;
50585;SDS011;36542;51.700;8.846;2023-08-24T05:45:29;30.77;;;13.53;;
50585;SDS011;36542;51.700;8.846;2023-08-24T05:47:55;20.97;;;13.83;;
50585;SDS011;36542;51.700;8.846;2023-08-24T05:50:20;17.43;;;14.47;;
50585;SDS011;36542;51.700;8.846;2023-08-24T05:52:46;19.43;;;17.07;;
50585;SDS011;36542;51.700;8.846;2023-08-24T05:55:11;18.67;;;15.07;;
50585;SDS011;36542;51.700;8.846;2023-08-24T05:57:37;17.93;;;16.03;;
50585;SDS011;36542;51.700;8.846;2023-08-24T06:00:04;17.07;;;14.83;;
50585;SDS011;36542;51.700;8.846;2023-08-24T06:02:34;15.07;;;13.63;;
50585;SDS011;36542;51.700;8.846;2023-08-24T06:05:00;15.60;;;14.03;;
50585;SDS011;36542;51.700;8.846;2023-08-24T06:07:26;16.13;;;14.53;;
50585;SDS011;36542;51.700;8.846;2023-08-24T06:09:51;17.47;;;14.10;;
50585;SDS011;36542;51.700;8.846;2023-08-24T06:12:17;21.13;;;14.30;;
50585;SDS011;36542;51.700;8.846;2023-08-24T06:14:43;40.23;;;17.23;;
50585;SDS011;36542;51.700;8.846;2023-08-24T06:17:09;26.87;;;15.63;;
50585;SDS011;36542;51.700;8.846;2023-08-24T06:19:34;22.67;;;15.07;;
50585;SDS011;36542;51.700;8.846;2023-08-24T06:21:59;18.50;;;15.23;;
50585;SDS011;36542;51.700;8.846;2023-08-24T06:24:25;26.53;;;15.73;;
50585;SDS011;36542;51.700;8.846;2023-08-24T06:26:50;28.83;;;15.97;;
50585;SDS011;36542;51.700;8.846;2023-08-24T06:29:16;31.60;;;15.37;;
50585;SDS011;36542;51.700;8.846;2023-08-24T06:31:42;34.23;;;15.77;;
50585;SDS011;36542;51.700;8.846;2023-08-24T06:34:07;22.83;;;14.10;;
50585;SDS011;36542;51.700;8.846;2023-08-24T06:36:33;23.07;;;15.10;;
50585;SDS011;36542;51.700;8.846;2023-08-24T06:38:58;21.03;;;16.10;;
50585;SDS011;36542;51.700;8.846;2023-08-24T06:41:24;17.43;;;15.93;;
50585;SDS011;36542;51.700;8.846;2023-08-24T06:43:49;16.73;;;15.03;;
50585;SDS011;36542;51.700;8.846;2023-08-24T06:46:15;20.27;;;14.17;;
50585;SDS011;36542;51.700;8.846;2023-08-24T06:48:40;17.97;;;13.27;;
50585;SDS011;36542;51.700;8.846;2023-08-24T06:51:09;17.80;;;13.43;;
50585;SDS011;36542;51.700;8.846;2023-08-24T06:53:35;17.97;;;11.57;;
50585;SDS011;36542;51.700;8.846;2023-08-24T06:56:00;13.23;;;11.87;;
50585;SDS011;36542;51.700;8.846;2023-08-24T06:58:26;14.53;;;10.70;;
50585;SDS011;36542;51.700;8.846;2023-08-24T07:00:51;11.93;;;10.63;;
50585;SDS011;36542;51.700;8.846;2023-08-24T07:03:17;11.60;;;10.53;;
50585;SDS011;36542;51.700;8.846;2023-08-24T07:05:44;14.07;;;10.70;;
50585;SDS011;36542;51.700;8.846;2023-08-24T07:08:13;11.83;;;9.17;;
50585;SDS011;36542;51.700;8.846;2023-08-24T07:28:36;12.07;;;7.47;;
50585;SDS011;36542;51.700;8.846;2023-08-24T07:31:08;8.73;;;7.10;;
50585;SDS011;36542;51.700;8.846;2023-08-24T07:33:45;10.25;;;7.00;;
50585;SDS011;36542;51.700;8.846;2023-08-24T07:36:13;8.55;;;6.97;;
50585;SDS011;36542;51.700;8.846;2023-08-24T07:39:29;8.40;;;7.60;;
50585;SDS011;36542;51.700;8.846;2023-08-24T07:45:45;9.85;;;7.70;;
50585;SDS011;36542;51.700;8.846;2023-08-24T07:48:31;15.02;;;7.53;;
50585;SDS011;36542;51.700;8.846;2023-08-24T07:51:22;8.30;;;6.80;;
50585;SDS011;36542;51.700;8.846;2023-08-24T07:57:11;6.90;;;6.25;;
50585;SDS011;36542;51.700;8.846;2023-08-24T07:59:42;6.93;;;6.10;;
50585;SDS011;36542;51.700;8.846;2023-08-24T08:02:56;7.32;;;6.13;;
50585;SDS011;36542;51.700;8.846;2023-08-24T08:06:08;8.63;;;5.60;;
50585;SDS011;36542;51.700;8.846;2023-08-24T08:08:39;7.25;;;4.72;;
50585;SDS011;36542;51.700;8.846;2023-08-24T08:21:59;4.53;;;4.10;;
50585;SDS011;36542;51.700;8.846;2023-08-24T08:24:31;7.97;;;3.80;;
50585;SDS011;36542;51.700;8.846;2023-08-24T08:27:16;8.45;;;4.00;;
50585;SDS011;36542;51.700;8.846;2023-08-24T08:29:45;8.02;;;4.47;;
50585;SDS011;36542;51.700;8.846;2023-08-24T08:36:32;7.70;;;4.22;;
50585;SDS011;36542;51.700;8.846;2023-08-24T08:42:09;5.32;;;3.88;;
50585;SDS011;36542;51.700;8.846;2023-08-24T08:44:46;5.85;;;4.38;;
50585;SDS011;36542;51.700;8.846;2023-08-24T08:51:32;8.40;;;3.90;;
50585;SDS011;36542;51.700;8.846;2023-08-24T08:54:31;7.80;;;4.65;;
50585;SDS011;36542;51.700;8.846;2023-08-24T08:57:00;8.20;;;3.97;;
50585;SDS011;36542;51.700;8.846;2023-08-24T09:03:10;7.35;;;4.28;;
50585;SDS011;36542;51.700;8.846;2023-08-24T09:06:33;8.43;;;4.15;;
50585;SDS011;36542;51.700;8.846;2023-08-24T09:26:55;7.63;;;4.80;;
50585;SDS011;36542;51.700;8.846;2023-08-24T09:32:44;5.07;;;4.28;;
50585;SDS011;36542;51.700;8.846;2023-08-24T09:38:20;6.95;;;4.07;;
50585;SDS011;36542;51.700;8.846;2023-08-24T09:41:16;5.88;;;3.63;;
50585;SDS011;36542;51.700;8.846;2023-08-24T09:43:44;6.97;;;4.78;;
50585;SDS011;36542;51.700;8.846;2023-08-24T09:46:20;7.35;;;4.18;;
50585;SDS011;36542;51.700;8.846;2023-08-24T09:52:56;5.10;;;4.28;;
50585;SDS011;36542;51.700;8.846;2023-08-24T09:56:19;9.02;;;4.53;;
50585;SDS011;36542;51.700;8.846;2023-08-24T10:19:48;4.32;;;3.50;;
50585;SDS011;36542;51.700;8.846;2023-08-24T10:45:57;6.25;;;3.63;;
50585;SDS011;36542;51.700;8.846;2023-08-24T10:48:28;4.35;;;2.97;;
50585;SDS011;36542;51.700;8.846;2023-08-24T10:53:39;5.18;;;3.30;;
50585;SDS011;36542;51.700;8.846;2023-08-24T10:56:12;9.60;;;3.72;;
50585;SDS011;36542;51.700;8.846;2023-08-24T10:58:38;5.43;;;3.33;;
50585;SDS011;36542;51.700;8.846;2023-08-24T11:01:13;4.60;;;3.00;;
50585;SDS011;36542;51.700;8.846;2023-08-24T11:03:54;6.00;;;2.80;;
50585;SDS011;36542;51.700;8.846;2023-08-24T11:06:24;4.03;;;2.92;;
50585;SDS011;36542;51.700;8.846;2023-08-24T11:09:05;5.15;;;3.10;;
50585;SDS011;36542;51.700;8.846;2023-08-24T11:11:41;4.35;;;2.97;;
50585;SDS011;36542;51.700;8.846;2023-08-24T11:14:13;4.63;;;3.50;;
50585;SDS011;36542;51.700;8.846;2023-08-24T11:16:51;7.05;;;3.13;;
50585;SDS011;36542;51.700;8.846;2023-08-24T11:19:17;4.22;;;3.15;;
50585;SDS011;36542;51.700;8.846;2023-08-24T11:21:43;4.55;;;3.25;;
50585;SDS011;36542;51.700;8.846;2023-08-24T11:24:16;4.30;;;2.88;;
50585;SDS011;36542;51.700;8.846;2023-08-24T11:26:42;3.45;;;3.15;;
50585;SDS011;36542;51.700;8.846;2023-08-24T11:29:10;6.97;;;3.13;;
50585;SDS011;36542;51.700;8.846;2023-08-24T11:31:36;4.28;;;3.13;;
50585;SDS011;36542;51.700;8.846;2023-08-24T11:34:02;4.50;;;3.50;;
50585;SDS011;36542;51.700;8.846;2023-08-24T11:36:31;3.45;;;3.08;;
50585;SDS011;36542;51.700;8.846;2023-08-24T11:39:05;4.47;;;3.70;;
50585;SDS011;36542;51.700;8.846;2023-08-24T11:41:39;5.65;;;3.90;;
50585;SDS011;36542;51.700;8.846;2023-08-24T11:44:05;5.32;;;3.90;;
50585;SDS011;36542;51.700;8.846;2023-08-24T11:46:31;7.40;;;3.70;;
50585;SDS011;36542;51.700;8.846;2023-08-24T11:49:00;5.30;;;3.88;;
50585;SDS011;36542;51.700;8.846;2023-08-24T11:51:29;5.18;;;3.90;;
50585;SDS011;36542;51.700;8.846;2023-08-24T11:53:57;6.22;;;3.67;;
50585;SDS011;36542;51.700;8.846;2023-08-24T11:56:24;4.05;;;3.63;;
50585;SDS011;36542;51.700;8.846;2023-08-24T11:58:49;6.22;;;3.80;;
50585;SDS011;36542;51.700;8.846;2023-08-24T12:01:18;5.68;;;3.95;;
50585;SDS011;36542;51.700;8.846;2023-08-24T12:03:44;7.68;;;4.30;;
50585;SDS011;36542;51.700;8.846;2023-08-24T12:06:12;6.43;;;4.18;;
50585;SDS011;36542;51.700;8.846;2023-08-24T12:08:47;6.63;;;4.03;;
50585;SDS011;36542;51.700;8.846;2023-08-24T12:11:14;5.93;;;3.75;;
50585;SDS011;36542;51.700;8.846;2023-08-24T12:13:48;5.07;;;3.15;;
50585;SDS011;36542;51.700;8.846;2023-08-24T12:16:19;6.72;;;4.15;;
50585;SDS011;36542;51.700;8.846;2023-08-24T12:18:46;6.35;;;3.60;;
50585;SDS011;36542;51.700;8.846;2023-08-24T12:21:13;8.32;;;4.20;;
50585;SDS011;36542;51.700;8.846;2023-08-24T12:23:39;5.10;;;3.90;;
50585;SDS011;36542;51.700;8.846;2023-08-24T12:26:04;6.18;;;3.70;;
50585;SDS011;36542;51.700;8.846;2023-08-24T12:28:33;5.30;;;3.80;;
50585;SDS011;36542;51.700;8.846;2023-08-24T12:30:59;7.00;;;3.85;;
50585;SDS011;36542;51.700;8.846;2023-08-24T12:33:29;4.50;;;4.10;;
50585;SDS011;36542;51.700;8.846;2023-08-24T12:35:59;7.22;;;4.20;;
50585;SDS011;36542;51.700;8.846;2023-08-24T12:38:25;5.20;;;4.00;;
50585;SDS011;36542;51.700;8.846;2023-08-24T12:40:56;5.68;;;3.72;;
50585;SDS011;36542;51.700;8.846;2023-08-24T12:43:22;4.47;;;3.80;;
50585;SDS011;36542;51.700;8.846;2023-08-24T12:45:48;5.97;;;4.03;;
50585;SDS011;36542;51.700;8.846;2023-08-24T12:48:19;7.68;;;4.20;;
50585;SDS011;36542;51.700;8.846;2023-08-24T12:50:51;8.63;;;3.95;;
50585;SDS011;36542;51.700;8.846;2023-08-24T12:53:16;8.95;;;4.30;;
50585;SDS011;36542;51.700;8.846;2023-08-24T12:55:42;5.78;;;3.80;;
50585;SDS011;36542;51.700;8.846;2023-08-24T12:58:14;6.13;;;4.10;;
50585;SDS011;36542;51.700;8.846;2023-08-24T13:00:39;4.38;;;3.83;;
50585;SDS011;36542;51.700;8.846;2023-08-24T13:03:05;5.68;;;4.80;;
50585;SDS011;36542;51.700;8.846;2023-08-24T13:05:30;8.18;;;4.60;;
50585;SDS011;36542;51.700;8.846;2023-08-24T13:07:56;5.97;;;4.10;;
50585;SDS011;36542;51.700;8.846;2023-08-24T13:10:22;4.57;;;4.18;;
50585;SDS011;36542;51.700;8.846;2023-08-24T13:12:48;9.73;;;4.72;;
50585;SDS011;36542;51.700;8.846;2023-08-24T13:15:14;5.65;;;4.10;;
50585;SDS011;36542;51.700;8.846;2023-08-24T13:20:24;7.53;;;4.55;;
50585;SDS011;36542;51.700;8.846;2023-08-24T13:22:55;6.13;;;4.35;;
50585;SDS011;36542;51.700;8.846;2023-08-24T13:25:24;6.72;;;4.30;;
50585;SDS011;36542;51.700;8.846;2023-08-24T13:27:49;5.38;;;4.05;;
50585;SDS011;36542;51.700;8.846;2023-08-24T13:30:15;6.57;;;4.40;;
50585;SDS011;36542;51.700;8.846;2023-08-24T13:32:41;5.32;;;4.15;;
50585;SDS011;36542;51.700;8.846;2023-08-24T13:35:06;7.55;;;4.13;;
50585;SDS011;36542;51.700;8.846;2023-08-24T13:37:33;7.30;;;4.07;;
50585;SDS011;36542;51.700;8.846;2023-08-24T13:40:00;5.50;;;3.80;;
50585;SDS011;36542;51.700;8.846;2023-08-24T13:42:25;5.72;;;3.78;;
50585;SDS011;36542;51.700;8.846;2023-08-24T13:44:51;4.10;;;3.45;;
50585;SDS011;36542;51.700;8.846;2023-08-24T13:47:16;5.65;;;3.58;;
50585;SDS011;36542;51.700;8.846;2023-08-24T13:49:42;3.55;;;3.25;;
50585;SDS011;36542;51.700;8.846;2023-08-24T13:52:10;5.93;;;3.38;;
50585;SDS011;36542;51.700;8.846;2023-08-24T13:54:36;8.18;;;3.47;;
50585;SDS011;36542;51.700;8.846;2023-08-24T13:57:01;5.15;;;2.97;;
50585;SDS011;36542;51.700;8.846;2023-08-24T13:59:31;6.65;;;3.13;;
50585;SDS011;36542;51.700;8.846;2023-08-24T14:01:57;5.28;;;3.45;;
50585;SDS011;36542;51.700;8.846;2023-08-24T14:04:23;6.13;;;3.15;;
50585;SDS011;36542;51.700;8.846;2023-08-24T14:06:48;5.03;;;3.22;;
50585;SDS011;36542;51.700;8.846;2023-08-24T14:09:14;3.47;;;3.10;;
50585;SDS011;36542;51.700;8.846;2023-08-24T14:11:40;5.32;;;2.75;;
50585;SDS011;36542;51.700;8.846;2023-08-24T14:14:06;6.03;;;2.95;;
50585;SDS011;36542;51.700;8.846;2023-08-24T14:16:34;5.70;;;3.20;;
50585;SDS011;36542;51.700;8.846;2023-08-24T14:18:59;5.18;;;3.17;;
50585;SDS011;36542;51.700;8.846;2023-08-24T14:21:25;5.63;;;3.28;;
50585;SDS011;36542;51.700;8.846;2023-08-24T14:23:50;5.30;;;3.28;;
50585;SDS011;36542;51.700;8.846;2023-08-24T14:26:16;7.20;;;3.30;;
50585;SDS011;36542;51.700;8.846;2023-08-24T14:28:54;5.53;;;3.00;;
50585;SDS011;36542;51.700;8.846;2023-08-24T14:31:22;5.05;;;3.20;;
50585;SDS011;36542;51.700;8.846;2023-08-24T14:33:49;9.85;;;3.78;;
50585;SDS011;36542;51.700;8.846;2023-08-24T14:36:18;6.65;;;3.17;;
50585;SDS011;36542;51.700;8.846;2023-08-24T14:38:45;4.95;;;3.03;;
50585;SDS011;36542;51.700;8.846;2023-08-24T14:41:12;8.85;;;3.20;;
50585;SDS011;36542;51.700;8.846;2023-08-24T14:43:38;7.28;;;3.28;;
50585;SDS011;36542;51.700;8.846;2023-08-24T14:46:16;7.13;;;3.15;;
50585;SDS011;36542;51.700;8.846;2023-08-24T14:48:47;3.58;;;2.97;;
50585;SDS011;36542;51.700;8.846;2023-08-24T14:51:12;5.82;;;2.97;;
50585;SDS011;36542;51.700;8.846;2023-08-24T14:53:38;4.90;;;2.70;;
50585;SDS011;36542;51.700;8.846;2023-08-24T14:56:03;3.10;;;2.53;;
50585;SDS011;36542;51.700;8.846;2023-08-24T14:58:29;9.93;;;3.30;;
50585;SDS011;36542;51.700;8.846;2023-08-24T15:00:57;9.77;;;4.03;;
50585;SDS011;36542;51.700;8.846;2023-08-24T15:03:35;5.82;;;2.90;;
50585;SDS011;36542;51.700;8.846;2023-08-24T15:06:03;3.58;;;3.13;;
50585;SDS011;36542;51.700;8.846;2023-08-24T15:08:35;6.07;;;2.85;;
50585;SDS011;36542;51.700;8.846;2023-08-24T15:11:02;6.93;;;3.50;;
50585;SDS011;36542;51.700;8.846;2023-08-24T15:13:28;10.60;;;3.67;;
50585;SDS011;36542;51.700;8.846;2023-08-24T15:15:57;7.07;;;2.95;;
50585;SDS011;36542;51.700;8.846;2023-08-24T15:18:28;8.35;;;3.33;;
50585;SDS011;36542;51.700;8.846;2023-08-24T15:20:54;7.43;;;2.90;;
50585;SDS011;36542;51.700;8.846;2023-08-24T15:23:31;8.38;;;3.30;;
50585;SDS011;36542;51.700;8.846;2023-08-24T15:25:57;6.97;;;3.20;;
50585;SDS011;36542;51.700;8.846;2023-08-24T15:28:24;9.05;;;3.08;;
50585;SDS011;36542;51.700;8.846;2023-08-24T15:30:50;6.88;;;3.22;;
50585;SDS011;36542;51.700;8.846;2023-08-24T15:33:17;6.47;;;3.05;;
50585;SDS011;36542;51.700;8.846;2023-08-24T15:35:43;3.47;;;3.10;;
50585;SDS011;36542;51.700;8.846;2023-08-24T15:38:09;7.30;;;4.60;;
50585;SDS011;36542;51.700;8.846;2023-08-24T15:40:35;8.27;;;4.63;;
50585;SDS011;36542;51.700;8.846;2023-08-24T15:43:01;5.53;;;3.90;;
50585;SDS011;36542;51.700;8.846;2023-08-24T15:45:28;4.68;;;3.05;;
50585;SDS011;36542;51.700;8.846;2023-08-24T15:47:57;4.43;;;3.17;;
50585;SDS011;36542;51.700;8.846;2023-08-24T15:50:24;10.57;;;3.28;;
50585;SDS011;36542;51.700;8.846;2023-08-24T15:52:50;3.92;;;3.05;;
50585;SDS011;36542;51.700;8.846;2023-08-24T15:55:17;8.10;;;3.17;;
50585;SDS011;36542;51.700;8.846;2023-08-24T15:57:42;6.28;;;3.17;;
50585;SDS011;36542;51.700;8.846;2023-08-24T16:00:08;8.43;;;3.90;;
50585;SDS011;36542;51.700;8.846;2023-08-24T16:02:37;6.57;;;3.97;;
50585;SDS011;36542;51.700;8.846;2023-08-24T16:05:03;7.10;;;3.95;;
50585;SDS011;36542;51.700;8.846;2023-08-24T16:07:31;12.60;;;3.75;;
50585;SDS011;36542;51.700;8.846;2023-08-24T16:10:12;10.20;;;3.65;;
50585;SDS011;36542;51.700;8.846;2023-08-24T16:12:38;8.60;;;3.50;;
50585;SDS011;36542;51.700;8.846;2023-08-24T16:15:21;7.40;;;3.42;;
50585;SDS011;36542;51.700;8.846;2023-08-24T16:17:56;11.15;;;3.92;;
50585;SDS011;36542;51.700;8.846;2023-08-24T16:23:49;11.65;;;3.67;;
50585;SDS011;36542;51.700;8.846;2023-08-24T16:26:15;7.40;;;3.00;;
50585;SDS011;36542;51.700;8.846;2023-08-24T17:38:34;8.52;;;4.88;;
50585;SDS011;36542;51.700;8.846;2023-08-24T17:41:00;5.63;;;4.22;;
50585;SDS011;36542;51.700;8.846;2023-08-24T17:43:44;7.35;;;3.97;;
50585;SDS011;36542;51.700;8.846;2023-08-24T18:40:01;8.52;;;5.13;;
50585;SDS011;36542;51.700;8.846;2023-08-24T18:42:31;10.13;;;4.50;;
50585;SDS011;36542;51.700;8.846;2023-08-24T18:44:56;7.55;;;4.78;;
50585;SDS011;36542;51.700;8.846;2023-08-24T18:47:22;6.03;;;4.93;;
50585;SDS011;36542;51.700;8.846;2023-08-24T18:49:48;5.32;;;4.55;;
50585;SDS011;36542;51.700;8.846;2023-08-24T18:52:15;9.68;;;5.35;;
50585;SDS011;36542;51.700;8.846;2023-08-24T18:54:42;9.40;;;4.97;;
50585;SDS011;36542;51.700;8.846;2023-08-24T18:57:10;6.78;;;5.30;;
50585;SDS011;36542;51.700;8.846;2023-08-24T18:59:36;8.20;;;5.65;;
50585;SDS011;36542;51.700;8.846;2023-08-24T19:02:01;7.45;;;5.60;;